sensor_id;sensor_type;location;lat;lon;timestamp;temperature;humidity
40287;DHT22;25998;46.604;13.610;2022-08-19T00:01:10;19.00;99.90
40287;DHT22;25998;46.604;13.610;2022-08-19T00:04:25;18.90;99.90
40287;DHT22;25998;46.604;13.610;2022-08-19T00:07:37;18.90;99.90
40287;DHT22;25998;46.604;13.610;2022-08-19T00:10:48;19.10;99.90
40287;DHT22;25998;46.604;13.610;2022-08-19T00:13:59;19.30;99.90
40287;DHT22;25998;46.604;13.610;2022-08-19T00:17:10;19.30;99.90
40287;DHT22;25998;46.604;13.610;2022-08-19T00:20:21;19.50;99.90
40287;DHT22;25998;46.604;13.610;2022-08-19T00:23:32;19.40;99.90
40287;DHT22;25998;46.604;13.610;2022-08-19T00:26:45;19.50;99.90
40287;DHT22;25998;46.604;13.610;2022-08-19T00:29:56;19.40;99.90
40287;DHT22;25998;46.604;13.610;2022-08-19T00:33:09;19.40;99.90
40287;DHT22;25998;46.604;13.610;2022-08-19T00:36:21;19.30;99.90
40287;DHT22;25998;46.604;13.610;2022-08-19T00:39:32;19.30;99.90
40287;DHT22;25998;46.604;13.610;2022-08-19T00:42:43;19.30;99.90
40287;DHT22;25998;46.604;13.610;2022-08-19T00:45:54;19.30;99.90
40287;DHT22;25998;46.604;13.610;2022-08-19T00:52:39;19.20;99.90
40287;DHT22;25998;46.604;13.610;2022-08-19T00:56:00;19.30;99.90
40287;DHT22;25998;46.604;13.610;2022-08-19T00:59:12;19.30;99.90
40287;DHT22;25998;46.604;13.610;2022-08-19T01:02:23;19.50;99.90
40287;DHT22;25998;46.604;13.610;2022-08-19T01:05:35;19.50;99.90
40287;DHT22;25998;46.604;13.610;2022-08-19T01:08:47;19.60;99.90
40287;DHT22;25998;46.604;13.610;2022-08-19T01:11:58;19.50;99.90
40287;DHT22;25998;46.604;13.610;2022-08-19T01:15:11;19.40;99.90
40287;DHT22;25998;46.604;13.610;2022-08-19T01:18:22;19.50;99.90
40287;DHT22;25998;46.604;13.610;2022-08-19T01:21:39;19.30;99.90
40287;DHT22;25998;46.604;13.610;2022-08-19T01:24:51;19.40;99.90
40287;DHT22;25998;46.604;13.610;2022-08-19T01:28:02;19.30;99.90
40287;DHT22;25998;46.604;13.610;2022-08-19T01:31:16;19.30;99.90
40287;DHT22;25998;46.604;13.610;2022-08-19T01:34:27;19.30;99.90
40287;DHT22;25998;46.604;13.610;2022-08-19T01:37:52;19.40;99.90
40287;DHT22;25998;46.604;13.610;2022-08-19T01:41:04;19.50;99.90
40287;DHT22;25998;46.604;13.610;2022-08-19T01:44:17;19.40;99.90
40287;DHT22;25998;46.604;13.610;2022-08-19T01:47:34;19.50;99.90
40287;DHT22;25998;46.604;13.610;2022-08-19T01:50:45;19.50;99.90
40287;DHT22;25998;46.604;13.610;2022-08-19T01:53:58;19.30;99.90
40287;DHT22;25998;46.604;13.610;2022-08-19T01:57:13;19.20;99.90
40287;DHT22;25998;46.604;13.610;2022-08-19T02:00:28;19.10;99.90
40287;DHT22;25998;46.604;13.610;2022-08-19T02:03:40;18.90;99.90
40287;DHT22;25998;46.604;13.610;2022-08-19T02:06:52;18.90;99.90
40287;DHT22;25998;46.604;13.610;2022-08-19T02:10:05;19.00;99.90
40287;DHT22;25998;46.604;13.610;2022-08-19T02:13:16;19.00;99.90
40287;DHT22;25998;46.604;13.610;2022-08-19T02:16:28;18.80;99.90
40287;DHT22;25998;46.604;13.610;2022-08-19T02:19:39;19.00;99.90
40287;DHT22;25998;46.604;13.610;2022-08-19T02:22:50;19.10;99.90
40287;DHT22;25998;46.604;13.610;2022-08-19T02:26:02;19.20;99.90
40287;DHT22;25998;46.604;13.610;2022-08-19T02:29:13;19.20;99.90
40287;DHT22;25998;46.604;13.610;2022-08-19T02:32:24;19.10;99.90
40287;DHT22;25998;46.604;13.610;2022-08-19T02:35:35;18.90;99.90
40287;DHT22;25998;46.604;13.610;2022-08-19T02:38:46;18.80;99.90
40287;DHT22;25998;46.604;13.610;2022-08-19T02:41:57;18.80;99.90
40287;DHT22;25998;46.604;13.610;2022-08-19T02:45:10;18.80;99.90
40287;DHT22;25998;46.604;13.610;2022-08-19T02:48:23;18.80;99.90
40287;DHT22;25998;46.604;13.610;2022-08-19T02:51:40;18.70;99.90
40287;DHT22;25998;46.604;13.610;2022-08-19T02:54:51;18.70;99.90
40287;DHT22;25998;46.604;13.610;2022-08-19T02:58:02;19.00;99.90
40287;DHT22;25998;46.604;13.610;2022-08-19T03:01:21;19.10;99.90
40287;DHT22;25998;46.604;13.610;2022-08-19T03:04:32;19.10;99.90
40287;DHT22;25998;46.604;13.610;2022-08-19T03:07:46;19.00;99.90
40287;DHT22;25998;46.604;13.610;2022-08-19T03:10:57;19.20;99.90
40287;DHT22;25998;46.604;13.610;2022-08-19T03:14:09;19.10;99.90
40287;DHT22;25998;46.604;13.610;2022-08-19T03:17:20;19.10;99.90
40287;DHT22;25998;46.604;13.610;2022-08-19T03:20:31;18.90;99.90
40287;DHT22;25998;46.604;13.610;2022-08-19T03:23:43;18.80;99.90
40287;DHT22;25998;46.604;13.610;2022-08-19T03:26:55;18.80;99.90
40287;DHT22;25998;46.604;13.610;2022-08-19T03:30:13;18.80;99.90
40287;DHT22;25998;46.604;13.610;2022-08-19T03:33:25;18.90;99.90
40287;DHT22;25998;46.604;13.610;2022-08-19T03:36:36;18.90;99.90
40287;DHT22;25998;46.604;13.610;2022-08-19T03:39:47;18.90;99.90
40287;DHT22;25998;46.604;13.610;2022-08-19T03:42:58;18.80;99.90
40287;DHT22;25998;46.604;13.610;2022-08-19T03:46:11;18.50;99.90
40287;DHT22;25998;46.604;13.610;2022-08-19T03:49:25;18.20;99.90
40287;DHT22;25998;46.604;13.610;2022-08-19T03:52:37;18.10;99.90
40287;DHT22;25998;46.604;13.610;2022-08-19T03:55:52;18.10;99.90
40287;DHT22;25998;46.604;13.610;2022-08-19T03:59:06;18.30;99.90
40287;DHT22;25998;46.604;13.610;2022-08-19T04:02:17;18.30;99.90
40287;DHT22;25998;46.604;13.610;2022-08-19T04:05:28;18.40;99.90
40287;DHT22;25998;46.604;13.610;2022-08-19T04:08:40;18.50;99.90
40287;DHT22;25998;46.604;13.610;2022-08-19T04:11:54;18.60;99.90
40287;DHT22;25998;46.604;13.610;2022-08-19T04:15:06;18.60;99.90
40287;DHT22;25998;46.604;13.610;2022-08-19T04:18:21;18.60;99.90
40287;DHT22;25998;46.604;13.610;2022-08-19T04:21:33;18.50;99.90
40287;DHT22;25998;46.604;13.610;2022-08-19T04:24:45;18.50;99.90
40287;DHT22;25998;46.604;13.610;2022-08-19T04:27:55;18.60;99.90
40287;DHT22;25998;46.604;13.610;2022-08-19T04:31:14;18.70;99.90
40287;DHT22;25998;46.604;13.610;2022-08-19T04:34:27;18.60;99.90
40287;DHT22;25998;46.604;13.610;2022-08-19T04:37:39;18.50;99.90
40287;DHT22;25998;46.604;13.610;2022-08-19T04:40:51;18.30;99.90
40287;DHT22;25998;46.604;13.610;2022-08-19T04:44:20;18.20;99.90
40287;DHT22;25998;46.604;13.610;2022-08-19T04:47:31;18.20;99.90
40287;DHT22;25998;46.604;13.610;2022-08-19T04:50:43;18.10;99.90
40287;DHT22;25998;46.604;13.610;2022-08-19T04:53:54;18.20;99.90
40287;DHT22;25998;46.604;13.610;2022-08-19T04:57:07;18.30;99.90
40287;DHT22;25998;46.604;13.610;2022-08-19T05:00:19;18.30;99.90
40287;DHT22;25998;46.604;13.610;2022-08-19T05:03:30;18.20;99.90
40287;DHT22;25998;46.604;13.610;2022-08-19T05:06:45;18.00;99.90
40287;DHT22;25998;46.604;13.610;2022-08-19T05:09:56;18.00;99.90
40287;DHT22;25998;46.604;13.610;2022-08-19T05:13:07;18.20;99.90
40287;DHT22;25998;46.604;13.610;2022-08-19T05:16:21;18.40;99.90
40287;DHT22;25998;46.604;13.610;2022-08-19T05:19:32;18.60;99.90
40287;DHT22;25998;46.604;13.610;2022-08-19T05:23:01;18.50;99.90
40287;DHT22;25998;46.604;13.610;2022-08-19T05:26:14;18.60;99.90
40287;DHT22;25998;46.604;13.610;2022-08-19T05:29:27;18.50;99.90
40287;DHT22;25998;46.604;13.610;2022-08-19T05:32:39;18.30;99.90
40287;DHT22;25998;46.604;13.610;2022-08-19T05:35:50;18.30;99.90
40287;DHT22;25998;46.604;13.610;2022-08-19T05:39:02;18.50;99.90
40287;DHT22;25998;46.604;13.610;2022-08-19T05:42:37;18.60;99.90
40287;DHT22;25998;46.604;13.610;2022-08-19T05:45:49;18.40;99.90
40287;DHT22;25998;46.604;13.610;2022-08-19T05:49:01;18.30;99.90
40287;DHT22;25998;46.604;13.610;2022-08-19T05:52:14;18.50;99.90
40287;DHT22;25998;46.604;13.610;2022-08-19T05:55:26;18.50;99.90
40287;DHT22;25998;46.604;13.610;2022-08-19T05:58:37;18.50;99.90
40287;DHT22;25998;46.604;13.610;2022-08-19T06:01:51;18.50;99.90
40287;DHT22;25998;46.604;13.610;2022-08-19T06:05:04;18.50;99.90
40287;DHT22;25998;46.604;13.610;2022-08-19T06:08:17;18.60;99.90
40287;DHT22;25998;46.604;13.610;2022-08-19T06:11:44;18.50;99.90
40287;DHT22;25998;46.604;13.610;2022-08-19T06:14:55;18.20;99.90
40287;DHT22;25998;46.604;13.610;2022-08-19T06:18:06;18.00;99.90
40287;DHT22;25998;46.604;13.610;2022-08-19T06:21:22;17.90;99.90
40287;DHT22;25998;46.604;13.610;2022-08-19T06:24:33;18.10;99.90
40287;DHT22;25998;46.604;13.610;2022-08-19T06:27:48;18.10;99.90
40287;DHT22;25998;46.604;13.610;2022-08-19T06:30:59;18.10;99.90
40287;DHT22;25998;46.604;13.610;2022-08-19T06:34:13;18.10;99.90
40287;DHT22;25998;46.604;13.610;2022-08-19T06:37:25;18.20;99.90
40287;DHT22;25998;46.604;13.610;2022-08-19T06:40:36;18.20;99.90
40287;DHT22;25998;46.604;13.610;2022-08-19T06:43:48;18.40;99.90
40287;DHT22;25998;46.604;13.610;2022-08-19T06:47:00;18.50;99.90
40287;DHT22;25998;46.604;13.610;2022-08-19T06:50:12;18.60;99.90
40287;DHT22;25998;46.604;13.610;2022-08-19T06:53:23;18.60;99.90
40287;DHT22;25998;46.604;13.610;2022-08-19T06:56:35;18.70;99.90
40287;DHT22;25998;46.604;13.610;2022-08-19T06:59:46;18.80;99.90
40287;DHT22;25998;46.604;13.610;2022-08-19T07:02:57;18.80;99.90
40287;DHT22;25998;46.604;13.610;2022-08-19T07:06:11;18.80;99.90
40287;DHT22;25998;46.604;13.610;2022-08-19T07:09:23;18.80;99.90
40287;DHT22;25998;46.604;13.610;2022-08-19T07:12:34;18.80;99.90
40287;DHT22;25998;46.604;13.610;2022-08-19T07:15:45;18.90;99.90
40287;DHT22;25998;46.604;13.610;2022-08-19T07:18:58;19.00;99.90
40287;DHT22;25998;46.604;13.610;2022-08-19T07:22:10;18.90;99.90
40287;DHT22;25998;46.604;13.610;2022-08-19T07:25:21;19.00;99.90
40287;DHT22;25998;46.604;13.610;2022-08-19T07:28:35;19.00;99.90
40287;DHT22;25998;46.604;13.610;2022-08-19T07:31:50;19.00;99.90
40287;DHT22;25998;46.604;13.610;2022-08-19T07:35:01;19.00;99.90
40287;DHT22;25998;46.604;13.610;2022-08-19T07:38:13;19.10;99.90
40287;DHT22;25998;46.604;13.610;2022-08-19T07:41:28;19.00;99.90
40287;DHT22;25998;46.604;13.610;2022-08-19T07:44:41;19.10;99.90
40287;DHT22;25998;46.604;13.610;2022-08-19T07:47:52;19.00;99.90
40287;DHT22;25998;46.604;13.610;2022-08-19T07:51:05;18.90;99.90
40287;DHT22;25998;46.604;13.610;2022-08-19T07:54:20;18.90;99.90
40287;DHT22;25998;46.604;13.610;2022-08-19T07:57:31;19.00;99.90
40287;DHT22;25998;46.604;13.610;2022-08-19T08:00:44;19.00;99.90
40287;DHT22;25998;46.604;13.610;2022-08-19T08:03:56;19.10;99.90
40287;DHT22;25998;46.604;13.610;2022-08-19T08:07:26;19.20;99.90
40287;DHT22;25998;46.604;13.610;2022-08-19T08:10:59;19.30;99.90
40287;DHT22;25998;46.604;13.610;2022-08-19T08:14:10;19.30;99.90
40287;DHT22;25998;46.604;13.610;2022-08-19T08:17:24;19.60;99.90
40287;DHT22;25998;46.604;13.610;2022-08-19T08:20:35;19.70;99.90
40287;DHT22;25998;46.604;13.610;2022-08-19T08:23:46;19.60;99.90
40287;DHT22;25998;46.604;13.610;2022-08-19T08:26:59;19.80;99.90
40287;DHT22;25998;46.604;13.610;2022-08-19T08:30:16;19.90;99.90
40287;DHT22;25998;46.604;13.610;2022-08-19T08:33:29;19.90;99.90
40287;DHT22;25998;46.604;13.610;2022-08-19T08:36:43;20.00;99.90
40287;DHT22;25998;46.604;13.610;2022-08-19T08:39:55;19.90;99.90
40287;DHT22;25998;46.604;13.610;2022-08-19T08:43:20;19.90;99.90
40287;DHT22;25998;46.604;13.610;2022-08-19T08:46:53;19.80;99.90
40287;DHT22;25998;46.604;13.610;2022-08-19T08:53:18;19.80;99.90
40287;DHT22;25998;46.604;13.610;2022-08-19T08:56:30;19.90;99.90
40287;DHT22;25998;46.604;13.610;2022-08-19T08:59:44;19.80;99.90
40287;DHT22;25998;46.604;13.610;2022-08-19T09:03:02;19.70;99.90
40287;DHT22;25998;46.604;13.610;2022-08-19T09:09:43;19.80;99.90
40287;DHT22;25998;46.604;13.610;2022-08-19T09:13:07;19.80;99.90
40287;DHT22;25998;46.604;13.610;2022-08-19T09:16:22;19.70;99.90
40287;DHT22;25998;46.604;13.610;2022-08-19T09:22:59;19.90;99.90
40287;DHT22;25998;46.604;13.610;2022-08-19T09:26:16;19.80;99.90
40287;DHT22;25998;46.604;13.610;2022-08-19T09:29:27;19.70;99.90
40287;DHT22;25998;46.604;13.610;2022-08-19T09:32:40;19.60;99.90
40287;DHT22;25998;46.604;13.610;2022-08-19T09:36:02;19.60;99.90
40287;DHT22;25998;46.604;13.610;2022-08-19T09:39:13;19.60;99.90
40287;DHT22;25998;46.604;13.610;2022-08-19T09:42:24;19.40;99.90
40287;DHT22;25998;46.604;13.610;2022-08-19T09:45:35;19.40;99.90
40287;DHT22;25998;46.604;13.610;2022-08-19T09:48:47;19.70;99.90
40287;DHT22;25998;46.604;13.610;2022-08-19T09:52:00;19.80;99.90
40287;DHT22;25998;46.604;13.610;2022-08-19T09:55:11;19.90;99.90
40287;DHT22;25998;46.604;13.610;2022-08-19T09:58:22;19.90;99.90
40287;DHT22;25998;46.604;13.610;2022-08-19T10:01:38;20.00;99.90
40287;DHT22;25998;46.604;13.610;2022-08-19T10:04:49;20.00;99.90
40287;DHT22;25998;46.604;13.610;2022-08-19T10:08:25;20.00;99.90
40287;DHT22;25998;46.604;13.610;2022-08-19T10:11:39;19.90;99.90
40287;DHT22;25998;46.604;13.610;2022-08-19T10:14:50;19.90;99.90
40287;DHT22;25998;46.604;13.610;2022-08-19T10:18:03;19.80;99.90
40287;DHT22;25998;46.604;13.610;2022-08-19T10:21:23;19.60;99.90
40287;DHT22;25998;46.604;13.610;2022-08-19T10:24:38;19.40;99.90
40287;DHT22;25998;46.604;13.610;2022-08-19T10:27:48;19.20;99.90
40287;DHT22;25998;46.604;13.610;2022-08-19T10:31:11;19.20;99.90
40287;DHT22;25998;46.604;13.610;2022-08-19T10:34:22;19.10;99.90
40287;DHT22;25998;46.604;13.610;2022-08-19T10:37:35;19.00;99.90
40287;DHT22;25998;46.604;13.610;2022-08-19T10:40:47;19.20;99.90
40287;DHT22;25998;46.604;13.610;2022-08-19T10:44:00;19.30;99.90
40287;DHT22;25998;46.604;13.610;2022-08-19T10:47:13;19.30;99.90
40287;DHT22;25998;46.604;13.610;2022-08-19T10:50:27;19.50;99.90
40287;DHT22;25998;46.604;13.610;2022-08-19T10:53:57;19.40;99.90
40287;DHT22;25998;46.604;13.610;2022-08-19T10:57:08;19.30;99.90
40287;DHT22;25998;46.604;13.610;2022-08-19T11:00:21;19.30;99.90
40287;DHT22;25998;46.604;13.610;2022-08-19T11:03:34;19.50;99.90
40287;DHT22;25998;46.604;13.610;2022-08-19T11:06:47;19.60;99.90
40287;DHT22;25998;46.604;13.610;2022-08-19T11:09:59;19.80;99.90
40287;DHT22;25998;46.604;13.610;2022-08-19T11:13:10;20.00;99.90
40287;DHT22;25998;46.604;13.610;2022-08-19T11:16:23;20.10;99.90
40287;DHT22;25998;46.604;13.610;2022-08-19T11:19:35;20.20;99.90
40287;DHT22;25998;46.604;13.610;2022-08-19T11:22:46;20.30;99.90
40287;DHT22;25998;46.604;13.610;2022-08-19T11:25:56;20.60;99.90
40287;DHT22;25998;46.604;13.610;2022-08-19T11:29:10;20.90;99.90
40287;DHT22;25998;46.604;13.610;2022-08-19T11:32:21;21.20;99.90
40287;DHT22;25998;46.604;13.610;2022-08-19T11:35:32;21.00;99.90
40287;DHT22;25998;46.604;13.610;2022-08-19T11:38:53;20.80;99.90
40287;DHT22;25998;46.604;13.610;2022-08-19T11:42:06;20.60;99.90
40287;DHT22;25998;46.604;13.610;2022-08-19T11:45:36;20.20;99.90
40287;DHT22;25998;46.604;13.610;2022-08-19T11:48:47;19.90;99.90
40287;DHT22;25998;46.604;13.610;2022-08-19T11:52:00;19.90;99.90
40287;DHT22;25998;46.604;13.610;2022-08-19T11:55:13;19.90;99.90
40287;DHT22;25998;46.604;13.610;2022-08-19T11:58:24;19.70;99.90
40287;DHT22;25998;46.604;13.610;2022-08-19T12:01:39;19.50;99.90
40287;DHT22;25998;46.604;13.610;2022-08-19T12:04:52;19.50;99.90
40287;DHT22;25998;46.604;13.610;2022-08-19T12:08:05;19.50;99.90
40287;DHT22;25998;46.604;13.610;2022-08-19T12:11:16;19.60;99.90
40287;DHT22;25998;46.604;13.610;2022-08-19T12:14:27;19.70;99.90
40287;DHT22;25998;46.604;13.610;2022-08-19T12:17:38;19.80;99.90
40287;DHT22;25998;46.604;13.610;2022-08-19T12:20:51;19.70;99.90
40287;DHT22;25998;46.604;13.610;2022-08-19T12:24:04;19.30;99.90
40287;DHT22;25998;46.604;13.610;2022-08-19T12:31:47;19.00;99.90
40287;DHT22;25998;46.604;13.610;2022-08-19T12:35:26;18.80;99.90
40287;DHT22;25998;46.604;13.610;2022-08-19T12:38:43;18.70;99.90
40287;DHT22;25998;46.604;13.610;2022-08-19T12:41:59;18.60;99.90
40287;DHT22;25998;46.604;13.610;2022-08-19T12:45:12;18.60;99.90
40287;DHT22;25998;46.604;13.610;2022-08-19T12:48:23;18.60;99.90
40287;DHT22;25998;46.604;13.610;2022-08-19T12:55:36;18.30;99.90
40287;DHT22;25998;46.604;13.610;2022-08-19T12:58:47;18.20;99.90
40287;DHT22;25998;46.604;13.610;2022-08-19T13:01:58;18.40;99.90
40287;DHT22;25998;46.604;13.610;2022-08-19T13:05:10;18.30;99.90
40287;DHT22;25998;46.604;13.610;2022-08-19T13:08:21;18.30;99.90
40287;DHT22;25998;46.604;13.610;2022-08-19T13:11:33;18.40;99.90
40287;DHT22;25998;46.604;13.610;2022-08-19T13:14:44;18.60;99.90
40287;DHT22;25998;46.604;13.610;2022-08-19T13:18:03;18.60;99.90
40287;DHT22;25998;46.604;13.610;2022-08-19T13:21:14;18.90;99.90
40287;DHT22;25998;46.604;13.610;2022-08-19T13:24:25;18.80;99.90
40287;DHT22;25998;46.604;13.610;2022-08-19T13:27:37;18.70;99.90
40287;DHT22;25998;46.604;13.610;2022-08-19T13:30:48;18.70;99.90
40287;DHT22;25998;46.604;13.610;2022-08-19T13:34:25;18.70;99.90
40287;DHT22;25998;46.604;13.610;2022-08-19T13:37:37;18.90;99.90
40287;DHT22;25998;46.604;13.610;2022-08-19T13:40:54;18.90;99.90
40287;DHT22;25998;46.604;13.610;2022-08-19T13:44:06;19.10;99.90
40287;DHT22;25998;46.604;13.610;2022-08-19T13:47:17;19.40;99.90
40287;DHT22;25998;46.604;13.610;2022-08-19T13:50:29;19.90;99.90
40287;DHT22;25998;46.604;13.610;2022-08-19T13:53:44;20.40;99.90
40287;DHT22;25998;46.604;13.610;2022-08-19T13:56:55;20.60;99.90
40287;DHT22;25998;46.604;13.610;2022-08-19T14:00:11;20.70;99.90
40287;DHT22;25998;46.604;13.610;2022-08-19T14:03:22;20.60;99.90
40287;DHT22;25998;46.604;13.610;2022-08-19T14:06:34;20.60;99.90
40287;DHT22;25998;46.604;13.610;2022-08-19T14:09:45;20.20;99.90
40287;DHT22;25998;46.604;13.610;2022-08-19T14:13:00;20.00;99.90
40287;DHT22;25998;46.604;13.610;2022-08-19T14:16:13;20.00;99.90
40287;DHT22;25998;46.604;13.610;2022-08-19T14:19:24;20.00;99.90
40287;DHT22;25998;46.604;13.610;2022-08-19T14:22:37;20.30;99.90
40287;DHT22;25998;46.604;13.610;2022-08-19T14:25:48;20.80;99.90
40287;DHT22;25998;46.604;13.610;2022-08-19T14:28:59;21.20;99.90
40287;DHT22;25998;46.604;13.610;2022-08-19T14:32:11;20.90;99.90
40287;DHT22;25998;46.604;13.610;2022-08-19T14:35:22;20.70;99.90
40287;DHT22;25998;46.604;13.610;2022-08-19T14:38:37;20.80;99.90
40287;DHT22;25998;46.604;13.610;2022-08-19T14:41:47;20.80;99.90
40287;DHT22;25998;46.604;13.610;2022-08-19T14:44:59;20.90;99.90
40287;DHT22;25998;46.604;13.610;2022-08-19T14:48:10;21.20;99.90
40287;DHT22;25998;46.604;13.610;2022-08-19T14:51:24;21.40;99.90
40287;DHT22;25998;46.604;13.610;2022-08-19T14:54:38;21.40;99.90
40287;DHT22;25998;46.604;13.610;2022-08-19T14:57:49;21.40;99.90
40287;DHT22;25998;46.604;13.610;2022-08-19T15:01:01;21.40;99.90
40287;DHT22;25998;46.604;13.610;2022-08-19T15:04:12;21.30;99.90
40287;DHT22;25998;46.604;13.610;2022-08-19T15:07:24;21.10;99.90
40287;DHT22;25998;46.604;13.610;2022-08-19T15:10:38;21.00;99.90
40287;DHT22;25998;46.604;13.610;2022-08-19T15:13:50;21.00;99.90
40287;DHT22;25998;46.604;13.610;2022-08-19T15:17:03;21.20;99.90
40287;DHT22;25998;46.604;13.610;2022-08-19T15:20:19;21.20;99.90
40287;DHT22;25998;46.604;13.610;2022-08-19T15:23:31;21.50;99.90
40287;DHT22;25998;46.604;13.610;2022-08-19T15:26:42;21.50;99.90
40287;DHT22;25998;46.604;13.610;2022-08-19T15:29:54;21.10;99.90
40287;DHT22;25998;46.604;13.610;2022-08-19T15:33:07;21.10;99.90
40287;DHT22;25998;46.604;13.610;2022-08-19T15:36:18;21.10;99.90
40287;DHT22;25998;46.604;13.610;2022-08-19T15:39:31;21.10;99.90
40287;DHT22;25998;46.604;13.610;2022-08-19T15:42:47;20.90;99.90
40287;DHT22;25998;46.604;13.610;2022-08-19T15:45:59;20.80;99.90
40287;DHT22;25998;46.604;13.610;2022-08-19T15:49:12;20.60;99.90
40287;DHT22;25998;46.604;13.610;2022-08-19T15:52:23;20.50;99.90
40287;DHT22;25998;46.604;13.610;2022-08-19T15:55:36;20.60;99.90
40287;DHT22;25998;46.604;13.610;2022-08-19T15:58:51;20.50;99.90
40287;DHT22;25998;46.604;13.610;2022-08-19T16:02:24;20.60;99.90
40287;DHT22;25998;46.604;13.610;2022-08-19T16:06:05;20.30;99.90
40287;DHT22;25998;46.604;13.610;2022-08-19T16:09:34;20.40;99.90
40287;DHT22;25998;46.604;13.610;2022-08-19T16:12:45;20.50;99.90
40287;DHT22;25998;46.604;13.610;2022-08-19T16:16:02;20.30;99.90
40287;DHT22;25998;46.604;13.610;2022-08-19T16:19:15;20.30;99.90
40287;DHT22;25998;46.604;13.610;2022-08-19T16:22:32;20.30;99.90
40287;DHT22;25998;46.604;13.610;2022-08-19T16:25:44;20.30;99.90
40287;DHT22;25998;46.604;13.610;2022-08-19T16:28:58;20.30;99.90
40287;DHT22;25998;46.604;13.610;2022-08-19T16:32:10;20.10;99.90
40287;DHT22;25998;46.604;13.610;2022-08-19T16:35:21;19.90;99.90
40287;DHT22;25998;46.604;13.610;2022-08-19T16:38:33;20.00;99.90
40287;DHT22;25998;46.604;13.610;2022-08-19T16:41:45;19.90;99.90
40287;DHT22;25998;46.604;13.610;2022-08-19T16:44:56;19.70;99.90
40287;DHT22;25998;46.604;13.610;2022-08-19T16:48:07;19.50;99.90
40287;DHT22;25998;46.604;13.610;2022-08-19T16:51:18;19.50;99.90
40287;DHT22;25998;46.604;13.610;2022-08-19T16:54:32;19.40;99.90
40287;DHT22;25998;46.604;13.610;2022-08-19T16:57:45;19.30;99.90
40287;DHT22;25998;46.604;13.610;2022-08-19T17:00:57;19.30;99.90
40287;DHT22;25998;46.604;13.610;2022-08-19T17:04:11;19.30;99.90
40287;DHT22;25998;46.604;13.610;2022-08-19T17:07:22;19.30;99.90
40287;DHT22;25998;46.604;13.610;2022-08-19T17:10:33;19.20;99.90
40287;DHT22;25998;46.604;13.610;2022-08-19T17:13:44;19.30;99.90
40287;DHT22;25998;46.604;13.610;2022-08-19T17:16:55;19.20;99.90
40287;DHT22;25998;46.604;13.610;2022-08-19T17:20:07;19.10;99.90
40287;DHT22;25998;46.604;13.610;2022-08-19T17:23:19;19.10;99.90
40287;DHT22;25998;46.604;13.610;2022-08-19T17:26:31;18.90;99.90
40287;DHT22;25998;46.604;13.610;2022-08-19T17:29:42;18.80;99.90
40287;DHT22;25998;46.604;13.610;2022-08-19T17:32:53;18.70;99.90
40287;DHT22;25998;46.604;13.610;2022-08-19T17:36:07;18.60;99.90
40287;DHT22;25998;46.604;13.610;2022-08-19T17:39:18;18.50;99.90
40287;DHT22;25998;46.604;13.610;2022-08-19T17:42:29;18.50;99.90
40287;DHT22;25998;46.604;13.610;2022-08-19T17:45:42;18.70;99.90
40287;DHT22;25998;46.604;13.610;2022-08-19T17:48:53;18.60;99.90
40287;DHT22;25998;46.604;13.610;2022-08-19T17:52:09;18.60;99.90
40287;DHT22;25998;46.604;13.610;2022-08-19T17:55:22;18.50;99.90
40287;DHT22;25998;46.604;13.610;2022-08-19T17:58:33;18.50;99.90
40287;DHT22;25998;46.604;13.610;2022-08-19T18:01:45;18.30;99.90
40287;DHT22;25998;46.604;13.610;2022-08-19T18:04:56;18.30;99.90
40287;DHT22;25998;46.604;13.610;2022-08-19T18:08:07;18.30;99.90
40287;DHT22;25998;46.604;13.610;2022-08-19T18:11:22;18.20;99.90
40287;DHT22;25998;46.604;13.610;2022-08-19T18:14:37;18.20;99.90
40287;DHT22;25998;46.604;13.610;2022-08-19T18:17:48;18.10;99.90
40287;DHT22;25998;46.604;13.610;2022-08-19T18:20:59;18.10;99.90
40287;DHT22;25998;46.604;13.610;2022-08-19T18:24:11;18.00;99.90
40287;DHT22;25998;46.604;13.610;2022-08-19T18:27:26;17.90;99.90
40287;DHT22;25998;46.604;13.610;2022-08-19T18:30:37;17.70;99.90
40287;DHT22;25998;46.604;13.610;2022-08-19T18:33:48;17.60;99.90
40287;DHT22;25998;46.604;13.610;2022-08-19T18:37:02;17.50;99.90
40287;DHT22;25998;46.604;13.610;2022-08-19T18:40:18;17.40;99.90
40287;DHT22;25998;46.604;13.610;2022-08-19T18:43:48;17.30;99.90
40287;DHT22;25998;46.604;13.610;2022-08-19T18:47:18;17.40;99.90
40287;DHT22;25998;46.604;13.610;2022-08-19T18:50:47;17.50;99.90
40287;DHT22;25998;46.604;13.610;2022-08-19T18:53:58;17.50;99.90
40287;DHT22;25998;46.604;13.610;2022-08-19T18:57:10;17.50;99.90
40287;DHT22;25998;46.604;13.610;2022-08-19T19:00:21;17.60;99.90
40287;DHT22;25998;46.604;13.610;2022-08-19T19:03:35;17.50;99.90
40287;DHT22;25998;46.604;13.610;2022-08-19T19:06:48;17.40;99.90
40287;DHT22;25998;46.604;13.610;2022-08-19T19:09:59;17.40;99.90
40287;DHT22;25998;46.604;13.610;2022-08-19T19:13:10;17.40;99.90
40287;DHT22;25998;46.604;13.610;2022-08-19T19:16:25;17.40;99.90
40287;DHT22;25998;46.604;13.610;2022-08-19T19:19:37;17.50;99.90
40287;DHT22;25998;46.604;13.610;2022-08-19T19:22:52;17.40;99.90
40287;DHT22;25998;46.604;13.610;2022-08-19T19:26:03;17.20;99.90
40287;DHT22;25998;46.604;13.610;2022-08-19T19:29:15;17.10;99.90
40287;DHT22;25998;46.604;13.610;2022-08-19T19:32:28;17.00;99.90
40287;DHT22;25998;46.604;13.610;2022-08-19T19:35:44;17.10;99.90
40287;DHT22;25998;46.604;13.610;2022-08-19T19:38:56;17.10;99.90
40287;DHT22;25998;46.604;13.610;2022-08-19T19:42:08;17.00;99.90
40287;DHT22;25998;46.604;13.610;2022-08-19T19:45:19;17.00;99.90
40287;DHT22;25998;46.604;13.610;2022-08-19T19:48:32;16.90;99.90
40287;DHT22;25998;46.604;13.610;2022-08-19T19:51:45;16.80;99.90
40287;DHT22;25998;46.604;13.610;2022-08-19T19:54:56;16.80;99.90
40287;DHT22;25998;46.604;13.610;2022-08-19T19:58:07;16.70;99.90
40287;DHT22;25998;46.604;13.610;2022-08-19T20:01:20;16.70;99.90
40287;DHT22;25998;46.604;13.610;2022-08-19T20:04:31;16.80;99.90
40287;DHT22;25998;46.604;13.610;2022-08-19T20:07:42;16.80;99.90
40287;DHT22;25998;46.604;13.610;2022-08-19T20:11:12;16.80;99.90
40287;DHT22;25998;46.604;13.610;2022-08-19T20:14:32;16.60;99.90
40287;DHT22;25998;46.604;13.610;2022-08-19T20:17:45;16.80;99.90
40287;DHT22;25998;46.604;13.610;2022-08-19T20:20:58;16.90;99.90
40287;DHT22;25998;46.604;13.610;2022-08-19T20:24:13;17.10;99.90